Marion, IN

5:59 AM EDT on April 26, 2017 (GMT -0400)
Marion Municipal

Weather History for KMZZ - May, 2014

Change the Weather History Date:

Friday, May 30, 2014

  Actual Average (KMIE) Record (KMIE)
Temperature  
Mean Temperature 67 °F -  
Max Temperature 80 °F 75 °F 90 °F (1969)
Min Temperature 54 °F 56 °F 40 °F (1990)
Cooling Degree Days 2    
Growing Degree Days 17 (Base 50)    
Moisture  
Dew Point 52 °F    
Average Humidity 57    
Maximum Humidity 84    
Minimum Humidity 32    
Precipitation  
Precipitation 0.00 in - - ()
Sea Level Pressure  
Sea Level Pressure 30.15 in    
Wind  
Wind Speed 8 mph (East)    
Max Wind Speed 14 mph    
Max Gust Speed 21 mph    
Visibility 9 miles    
Events      
Averages and records for this station are not official NWS values.
T = Trace of Precipitation, MM = Missing Value Source: NWS Daily Summary

Daily Weather History Graph

Daily Weather History Graph

Search for Another Location

Airport or City:

Trip Planner

Search our weather history database for the weather conditions in past years. The results will help you decide how hot, cold, wet, or windy it might be!

Date:

Astronomy

May. 30, 2014 Rise Set
Actual Time 6:15 AM EDT 9:05 PM EDT
Civil Twilight 5:43 AM EDT 9:37 PM EDT
Nautical Twilight 5:02 AM EDT 10:18 PM EDT
Astronomical Twilight 4:15 AM EDT 11:05 PM EDT
Moon 7:59 AM EDT (5/30) 10:41 PM EDT (5/30)
Length of Visible Light 15h 54m
Length of Day
14h 50m
Waxing Crescent, 4% of the Moon is Illuminated
May 30
Waxing Crescent
Jun 5
First Quarter
Jun 13
Full
Jun 19
Last Quarter
Jun 27
New

Hourly Weather History & Observations

Time (EDT) Temp. Dew Point Humidity Pressure Visibility Wind Dir Wind Speed Gust Speed Precip Events Conditions
12:15 AM 67.1 °F 56.3 °F 68% 30.12 in 10.0 mi East 9.2 mph - N/A   Clear
12:35 AM 66.6 °F 55.8 °F 68% 30.12 in 10.0 mi East 9.2 mph - N/A   Clear
12:55 AM 66.0 °F 54.9 °F 67% 30.12 in 10.0 mi East 8.1 mph - N/A   Clear
1:15 AM 65.3 °F 54.1 °F 67% 30.12 in 7.0 mi East 8.1 mph - N/A   Clear
1:35 AM 64.8 °F 53.6 °F 67% 30.12 in 10.0 mi East 6.9 mph - N/A   Clear
1:55 AM 63.9 °F 53.1 °F 68% 30.12 in 10.0 mi East 6.9 mph - N/A   Clear
2:15 AM 63.1 °F 52.7 °F 69% 30.12 in 10.0 mi East 5.8 mph - N/A   Clear
2:35 AM 62.4 °F 52.3 °F 70% 30.12 in 10.0 mi East 5.8 mph - N/A   Clear
2:55 AM 61.2 °F 52.5 °F 73% 30.12 in 10.0 mi East 6.9 mph - N/A   Clear
3:15 AM 60.6 °F 52.5 °F 75% 30.12 in 7.0 mi East 6.9 mph - N/A   Clear
3:35 AM 60.1 °F 52.0 °F 75% 30.12 in 7.0 mi East 8.1 mph - N/A   Clear
3:55 AM 59.9 °F 52.0 °F 75% 30.12 in 10.0 mi East 9.2 mph - N/A   Clear
4:15 AM 59.4 °F 51.8 °F 76% 30.13 in 7.0 mi East 6.9 mph - N/A   Clear
4:35 AM 58.8 °F 51.4 °F 76% 30.13 in 7.0 mi ENE 8.1 mph - N/A   Clear
4:55 AM 58.3 °F 51.3 °F 77% 30.13 in 10.0 mi East 6.9 mph - N/A   Clear
5:15 AM 57.6 °F 50.9 °F 78% 30.13 in 10.0 mi East 5.8 mph - N/A   Clear
5:35 AM 56.8 °F 50.5 °F 79% 30.14 in 10.0 mi East 6.9 mph - N/A   Clear
5:55 AM 56.3 °F 50.2 °F 80% 30.14 in 10.0 mi ENE 4.6 mph - N/A   Clear
6:15 AM 55.2 °F 49.8 °F 82% 30.14 in 7.0 mi ENE 5.8 mph - N/A   Clear
6:35 AM 54.7 °F 50.0 °F 84% 30.14 in 5.0 mi East 4.6 mph - N/A   Haze
6:55 AM 54.9 °F 50.2 °F 84% 30.15 in 5.0 mi East 3.5 mph - N/A   Haze
7:15 AM 55.8 °F 50.7 °F 83% 30.15 in 7.0 mi East 3.5 mph - N/A   Clear
7:35 AM 57.4 °F 51.1 °F 79% 30.16 in 10.0 mi East 5.8 mph - N/A   Clear
7:55 AM 58.8 °F 51.1 °F 75% 30.16 in 7.0 mi East 5.8 mph - N/A   Clear
8:15 AM 60.4 °F 51.4 °F 72% 30.17 in 7.0 mi East 9.2 mph - N/A   Clear
8:35 AM 61.3 °F 51.6 °F 70% 30.18 in 10.0 mi East 8.1 mph - N/A   Clear
8:55 AM 62.4 °F 52.0 °F 69% 30.19 in 7.0 mi East 8.1 mph - N/A   Clear
9:15 AM 63.7 °F 52.2 °F 66% 30.19 in 7.0 mi East 10.4 mph - N/A   Clear
9:35 AM 64.8 °F 52.5 °F 64% 30.19 in 7.0 mi ESE 8.1 mph - N/A   Clear
9:55 AM 66.2 °F 53.1 °F 63% 30.19 in 7.0 mi East 10.4 mph - N/A   Clear
10:15 AM 66.7 °F 53.2 °F 62% 30.19 in 7.0 mi East 12.7 mph - N/A   Clear
10:35 AM 67.8 °F 53.1 °F 59% 30.20 in 7.0 mi East 10.4 mph - N/A   Clear
10:55 AM 68.5 °F 52.5 °F 57% 30.20 in 10.0 mi East 10.4 mph - N/A   Clear
11:15 AM 69.6 °F 52.9 °F 55% 30.19 in 10.0 mi East 11.5 mph - N/A   Clear
11:35 AM 70.2 °F 52.7 °F 54% 30.19 in 7.0 mi East 9.2 mph - N/A   Clear
11:55 AM 70.9 °F 53.2 °F 54% 30.19 in 10.0 mi East 9.2 mph - N/A   Clear
12:15 PM 71.8 °F 53.2 °F 52% 30.19 in 7.0 mi East 9.2 mph - N/A   Clear
12:35 PM 72.5 °F 52.9 °F 50% 30.18 in 10.0 mi ENE 9.2 mph 18.4 mph N/A   Clear
12:55 PM 73.2 °F 52.9 °F 49% 30.18 in 7.0 mi East 13.8 mph - N/A   Clear
1:15 PM 73.8 °F 51.6 °F 46% 30.17 in 10.0 mi East 10.4 mph - N/A   Clear
1:35 PM 74.8 °F 51.8 °F 44% 30.17 in 10.0 mi East 8.1 mph - N/A   Clear
1:55 PM 75.4 °F 50.7 °F 42% 30.17 in 10.0 mi East 8.1 mph - N/A   Clear
2:15 PM 76.1 °F 50.2 °F 40% 30.16 in 7.0 mi ESE 8.1 mph - N/A   Clear
2:35 PM 77.0 °F 51.6 °F 41% 30.16 in 10.0 mi ENE 11.5 mph 18.4 mph N/A   Clear
2:55 PM 77.2 °F 52.7 °F 42% 30.15 in 10.0 mi ENE 11.5 mph 18.4 mph N/A   Clear
3:15 PM 77.5 °F 51.6 °F 40% 30.14 in 10.0 mi East 11.5 mph 20.7 mph N/A   Clear
3:35 PM 78.4 °F 52.0 °F 40% 30.14 in 10.0 mi ENE 13.8 mph 20.7 mph N/A   Clear
3:55 PM 79.0 °F 52.5 °F 40% 30.13 in 10.0 mi ENE 12.7 mph - N/A   Clear
4:15 PM 79.2 °F 51.4 °F 38% 30.13 in 10.0 mi ENE 10.4 mph 19.6 mph N/A   Clear
4:55 PM 80.2 °F 49.8 °F 34% 30.13 in 7.0 mi East 10.4 mph 16.1 mph N/A   Clear
5:15 PM 80.2 °F 50.0 °F 35% 30.12 in 7.0 mi ENE 11.5 mph 16.1 mph N/A   Clear
5:35 PM 80.8 °F 49.3 °F 33% 30.12 in 7.0 mi East 8.1 mph - N/A   Clear
5:55 PM 80.8 °F 49.5 °F 33% 30.12 in 7.0 mi East 10.4 mph - N/A   Clear
6:15 PM 80.8 °F 48.6 °F 32% 30.12 in 10.0 mi East 9.2 mph 17.3 mph N/A   Clear
6:35 PM 80.6 °F 48.7 °F 33% 30.12 in 10.0 mi East 11.5 mph 16.1 mph N/A   Clear
6:55 PM 80.2 °F 49.5 °F 34% 30.12 in 10.0 mi ENE 9.2 mph - N/A   Clear
7:15 PM 79.9 °F 49.6 °F 35% 30.12 in 10.0 mi East 8.1 mph - N/A   Clear
7:35 PM 79.3 °F 48.9 °F 34% 30.12 in 7.0 mi East 8.1 mph - N/A   Clear
7:55 PM 78.6 °F 48.7 °F 35% 30.12 in 10.0 mi East 6.9 mph - N/A   Clear
8:15 PM 77.4 °F 50.2 °F 38% 30.12 in 10.0 mi East 6.9 mph - N/A   Clear
8:35 PM 75.7 °F 49.6 °F 40% 30.13 in 10.0 mi East 5.8 mph - N/A   Clear
8:55 PM 73.8 °F 50.2 °F 43% 30.13 in 7.0 mi East 4.6 mph - N/A   Clear
9:15 PM 72.7 °F 49.8 °F 44% 30.14 in 10.0 mi East 4.6 mph - N/A   Clear
9:55 PM 71.6 °F 50.2 °F 47% 30.15 in 10.0 mi East 3.5 mph - N/A   Clear
10:15 PM 68.7 °F 52.2 °F 55% 30.15 in 10.0 mi ENE 5.8 mph - N/A   Clear
10:35 PM 66.9 °F 53.6 °F 62% 30.16 in 10.0 mi ENE 8.1 mph - N/A   Clear
10:55 PM 66.9 °F 53.1 °F 61% 30.16 in 10.0 mi ENE 6.9 mph - N/A   Clear
11:15 PM 67.3 °F 52.7 °F 59% 30.16 in 10.0 mi East 5.8 mph - N/A   Clear
11:35 PM 67.1 °F 52.2 °F 59% 30.16 in 10.0 mi ENE 5.8 mph - N/A   Clear
11:55 PM 66.2 °F 52.3 °F 61% 30.17 in 10.0 mi East 5.8 mph - N/A   Clear